Time;durP1;ratioP1;P1;durP2;ratioP2;P2;SDS_P1;SDS_P2;PMS_P1;PMS_P2;Temp;Humidity;BMP_temperature;BMP_pressure;BME280_temperature;BME280_humidity;BME280_pressure;Samples;Min_cycle;Max_cycle;Signal;HPM_P1;HPM_P2
2024/03/12 00:00:22;;;;;;;4.83;3.73;;;7.20;99.90;;;;;;5031184;28;20460;-67
2024/03/12 00:02:50;;;;;;;4.00;3.30;;;7.20;99.90;;;;;;5031488;28;20464;-68
2024/03/12 00:05:18;;;;;;;3.80;3.47;;;7.10;99.90;;;;;;5031854;28;21005;-68
2024/03/12 00:07:47;;;;;;;4.43;4.03;;;7.10;99.90;;;;;;5002901;28;20441;-68
2024/03/12 00:10:19;;;;;;;4.83;3.60;;;7.00;99.90;;;;;;5025962;28;20544;-68
2024/03/12 00:12:47;;;;;;;5.47;3.80;;;7.00;99.90;;;;;;5034785;28;20437;-68
2024/03/12 00:15:17;;;;;;;4.97;4.20;;;6.90;99.90;;;;;;5035564;28;20537;-69
2024/03/12 00:17:47;;;;;;;5.70;4.00;;;6.80;99.90;;;;;;5028433;28;20437;-68
2024/03/12 00:20:29;;;;;;;4.73;4.30;;;6.80;99.90;;;;;;5023847;28;20426;-68
2024/03/12 00:22:56;;;;;;;4.87;4.37;;;6.80;99.90;;;;;;5016753;28;20461;-69
2024/03/12 00:25:22;;;;;;;6.60;4.57;;;6.70;99.90;;;;;;5014841;28;20509;-68
2024/03/12 00:27:51;;;;;;;4.63;4.13;;;6.60;99.90;;;;;;5003854;28;20436;-68
2024/03/12 00:30:24;;;;;;;6.47;4.10;;;6.60;99.90;;;;;;5032485;28;20822;-68
2024/03/12 00:32:57;;;;;;;4.00;3.70;;;6.60;99.90;;;;;;5017021;28;20422;-68
2024/03/12 00:35:32;;;;;;;5.57;5.17;;;6.50;99.90;;;;;;5019720;28;20860;-68
2024/03/12 00:37:58;;;;;;;5.40;4.40;;;6.50;99.90;;;;;;5022321;28;20792;-68
2024/03/12 00:40:33;;;;;;;6.90;4.90;;;6.50;99.90;;;;;;5021613;28;20436;-68
2024/03/12 00:42:59;;;;;;;5.13;4.60;;;6.40;99.90;;;;;;5019098;28;20943;-68
2024/03/12 00:45:26;;;;;;;5.67;5.17;;;6.40;99.90;;;;;;5029506;28;20532;-68
2024/03/12 00:47:54;;;;;;;6.43;5.70;;;6.30;99.90;;;;;;5014537;28;20429;-68
2024/03/12 00:50:21;;;;;;;5.40;5.00;;;6.30;99.90;;;;;;5014700;28;20465;-69
2024/03/12 00:52:46;;;;;;;4.37;3.97;;;6.30;99.90;;;;;;5027920;28;20440;-69
2024/03/12 00:55:16;;;;;;;4.77;4.40;;;6.30;99.90;;;;;;5010853;28;20468;-68
2024/03/12 00:57:42;;;;;;;5.87;4.27;;;6.30;99.90;;;;;;5005841;28;20183;-69
2024/03/12 01:02:55;;;;;;;7.77;6.97;;;6.30;99.90;;;;;;5022903;28;20460;-70
2024/03/12 01:05:24;;;;;;;5.10;4.60;;;6.30;99.90;;;;;;5007559;28;20444;-70
2024/03/12 01:07:53;;;;;;;6.00;3.90;;;6.30;99.90;;;;;;5026348;28;20832;-70
2024/03/12 01:10:20;;;;;;;5.30;3.67;;;6.30;99.90;;;;;;5027770;28;20424;-70
2024/03/12 01:12:50;;;;;;;3.87;3.33;;;6.30;99.90;;;;;;5021373;28;21147;-70
2024/03/12 01:15:18;;;;;;;4.40;4.00;;;6.30;99.90;;;;;;5027523;28;20457;-69
2024/03/12 01:17:50;;;;;;;4.17;3.30;;;6.30;99.90;;;;;;5017562;28;20437;-69
2024/03/12 01:20:20;;;;;;;5.33;4.60;;;6.30;99.90;;;;;;5028370;28;20499;-69
2024/03/12 01:22:46;;;;;;;4.90;4.40;;;6.30;99.90;;;;;;5030867;28;20464;-69
2024/03/12 01:25:12;;;;;;;4.47;4.03;;;6.20;99.90;;;;;;5023840;28;20466;-69
2024/03/12 01:27:39;;;;;;;4.43;4.03;;;6.20;99.90;;;;;;5019685;28;20430;-69
2024/03/12 01:30:20;;;;;;;3.87;3.57;;;6.20;99.90;;;;;;5023459;28;20461;-70
2024/03/12 01:32:46;;;;;;;4.10;3.70;;;6.10;99.90;;;;;;5029726;28;20511;-70
2024/03/12 01:35:13;;;;;;;4.57;3.50;;;6.10;99.90;;;;;;5029326;28;20503;-70
2024/03/12 01:37:43;;;;;;;3.90;3.50;;;6.00;99.90;;;;;;5013428;28;20434;-70
2024/03/12 01:40:21;;;;;;;4.00;3.70;;;6.00;99.90;;;;;;5015555;28;20462;-70
2024/03/12 01:42:50;;;;;;;4.13;3.70;;;6.00;99.90;;;;;;5023247;28;20458;-70
2024/03/12 01:45:17;;;;;;;4.83;4.20;;;6.00;99.90;;;;;;5013751;28;20795;-69
2024/03/12 01:47:45;;;;;;;4.03;3.50;;;6.00;99.90;;;;;;5021649;28;20434;-70
2024/03/12 01:50:11;;;;;;;3.47;3.17;;;6.00;99.90;;;;;;5017405;28;20469;-69
2024/03/12 01:52:37;;;;;;;4.50;3.83;;;5.90;99.90;;;;;;5028090;28;20437;-69
2024/03/12 01:55:03;;;;;;;5.17;4.77;;;5.90;99.90;;;;;;5025191;28;20815;-69
2024/03/12 01:57:28;;;;;;;4.50;4.10;;;5.90;99.90;;;;;;5012482;28;20193;-69
2024/03/12 01:59:54;;;;;;;3.53;3.23;;;5.90;99.90;;;;;;5014572;28;20662;-69
2024/03/12 02:02:19;;;;;;;5.23;3.33;;;5.90;99.90;;;;;;5024232;28;20204;-70
2024/03/12 02:04:45;;;;;;;3.83;3.53;;;5.80;99.90;;;;;;5027118;28;20217;-70
2024/03/12 02:07:11;;;;;;;5.17;3.70;;;5.80;99.90;;;;;;5026462;28;20547;-69
2024/03/12 02:09:38;;;;;;;4.90;4.00;;;5.70;99.90;;;;;;5025609;28;20791;-69
2024/03/12 02:12:04;;;;;;;4.33;3.87;;;5.70;99.90;;;;;;5013043;28;20501;-69
2024/03/12 02:14:30;;;;;;;4.20;3.80;;;5.60;99.90;;;;;;5013087;28;20504;-69
2024/03/12 02:16:56;;;;;;;6.00;4.40;;;5.60;99.90;;;;;;5019955;28;20441;-69
2024/03/12 02:19:21;;;;;;;3.80;3.47;;;5.60;99.90;;;;;;5019958;28;20182;-69
2024/03/12 02:21:48;;;;;;;5.20;4.70;;;5.60;99.90;;;;;;5027632;28;20929;-70
2024/03/12 02:24:13;;;;;;;4.20;3.83;;;5.60;99.90;;;;;;5025307;28;20205;-69
2024/03/12 02:26:39;;;;;;;3.87;3.57;;;5.50;99.90;;;;;;5013143;28;20434;-70
2024/03/12 02:29:07;;;;;;;4.17;3.63;;;5.50;99.90;;;;;;5021301;28;20179;-69
2024/03/12 02:31:36;;;;;;;5.50;3.50;;;5.50;99.90;;;;;;5012197;28;20182;-69
2024/03/12 02:34:01;;;;;;;3.47;3.17;;;5.40;99.90;;;;;;5021022;28;20450;-70
2024/03/12 02:36:27;;;;;;;5.13;3.77;;;5.40;99.90;;;;;;5018489;28;20443;-69
2024/03/12 02:38:53;;;;;;;5.93;3.73;;;5.40;99.90;;;;;;5018648;28;20167;-70
2024/03/12 02:41:21;;;;;;;3.63;3.33;;;5.40;99.90;;;;;;5023589;28;20177;-69
2024/03/12 02:43:47;;;;;;;3.60;2.90;;;5.40;99.90;;;;;;5009138;28;20512;-69
2024/03/12 02:46:14;;;;;;;4.60;3.17;;;5.40;99.90;;;;;;5011222;28;20434;-69
2024/03/12 02:48:42;;;;;;;7.13;4.30;;;5.40;99.90;;;;;;5015815;28;20825;-69
2024/03/12 02:51:08;;;;;;;3.60;3.33;;;5.40;99.90;;;;;;5003383;28;20552;-69
2024/03/12 02:53:34;;;;;;;3.50;3.20;;;5.30;99.90;;;;;;5015007;28;20460;-69
2024/03/12 02:56:00;;;;;;;3.93;3.57;;;5.30;99.90;;;;;;5028598;28;20421;-70
2024/03/12 02:58:26;;;;;;;3.20;3.00;;;5.20;99.90;;;;;;5017907;28;20667;-70
2024/03/12 03:00:53;;;;;;;3.20;3.00;;;5.20;99.90;;;;;;5015770;28;20418;-70
2024/03/12 03:03:20;;;;;;;4.03;3.67;;;5.20;99.90;;;;;;5023670;28;20202;-69
2024/03/12 03:05:45;;;;;;;4.03;3.63;;;5.20;99.90;;;;;;5024033;28;20425;-69
2024/03/12 03:08:11;;;;;;;4.47;3.67;;;5.20;99.90;;;;;;5028351;28;20444;-70
2024/03/12 03:10:36;;;;;;;6.13;3.27;;;5.20;99.90;;;;;;5012771;28;20262;-69
2024/03/12 03:13:02;;;;;;;3.97;3.67;;;5.10;99.90;;;;;;5012143;28;20758;-69
2024/03/12 03:15:27;;;;;;;4.50;3.80;;;5.10;99.90;;;;;;5011892;28;20204;-69
2024/03/12 03:17:53;;;;;;;3.50;3.20;;;5.10;99.90;;;;;;5019872;28;20202;-69
2024/03/12 03:20:18;;;;;;;4.33;3.93;;;5.10;99.90;;;;;;5020520;28;20171;-70
2024/03/12 03:22:47;;;;;;;3.73;3.43;;;5.10;99.90;;;;;;5003727;28;20677;-69
2024/03/12 03:25:12;;;;;;;4.20;3.63;;;5.20;99.90;;;;;;5000763;28;20260;-70
2024/03/12 03:27:38;;;;;;;3.90;3.50;;;5.20;99.90;;;;;;5017650;28;20520;-69
2024/03/12 03:30:07;;;;;;;4.07;3.67;;;5.20;99.90;;;;;;5021547;28;20181;-69
2024/03/12 03:32:35;;;;;;;4.83;4.20;;;5.30;99.90;;;;;;5020299;28;20437;-70
2024/03/12 03:35:02;;;;;;;9.80;3.60;;;5.30;99.90;;;;;;5011900;28;20460;-71
2024/03/12 03:37:32;;;;;;;6.60;4.43;;;5.40;99.90;;;;;;5021060;28;20429;-69
2024/03/12 03:39:58;;;;;;;4.87;4.47;;;5.40;99.90;;;;;;5023764;28;20423;-69
2024/03/12 03:42:24;;;;;;;5.43;4.40;;;5.50;99.90;;;;;;5011333;28;21232;-69
2024/03/12 03:44:50;;;;;;;4.63;3.43;;;5.50;99.90;;;;;;5019339;28;20195;-69
2024/03/12 03:47:15;;;;;;;4.87;4.10;;;5.60;99.90;;;;;;5020925;28;20428;-69
2024/03/12 03:49:41;;;;;;;5.10;3.37;;;5.70;99.90;;;;;;5022914;28;20558;-69
2024/03/12 03:52:07;;;;;;;4.60;3.93;;;5.70;99.90;;;;;;5026220;28;20170;-69
2024/03/12 03:54:32;;;;;;;3.40;3.10;;;5.80;99.90;;;;;;4997795;28;20191;-70
2024/03/12 03:56:58;;;;;;;3.57;3.23;;;5.90;99.90;;;;;;5010890;28;21009;-70
2024/03/12 03:59:24;;;;;;;3.37;3.17;;;5.90;99.90;;;;;;5021213;28;20187;-69
2024/03/12 04:01:50;;;;;;;4.00;3.60;;;6.00;99.90;;;;;;5019163;28;20174;-69
2024/03/12 04:04:18;;;;;;;3.60;3.30;;;6.10;99.90;;;;;;5024572;28;20965;-69
2024/03/12 04:06:44;;;;;;;5.67;4.33;;;6.10;99.90;;;;;;4997933;28;20263;-70
2024/03/12 04:09:10;;;;;;;4.83;3.40;;;6.20;99.90;;;;;;5019806;28;20516;-69
2024/03/12 04:11:35;;;;;;;3.73;3.43;;;6.20;99.90;;;;;;5020879;28;20600;-69
2024/03/12 04:14:02;;;;;;;3.60;3.17;;;6.30;99.90;;;;;;5010229;28;20202;-69
2024/03/12 04:16:30;;;;;;;4.07;3.47;;;6.30;99.90;;;;;;5021051;28;20255;-69
2024/03/12 04:18:58;;;;;;;3.80;3.50;;;6.30;99.90;;;;;;5015055;28;20444;-69
2024/03/12 04:21:24;;;;;;;2.70;2.50;;;6.30;99.90;;;;;;5011240;28;20430;-69
2024/03/12 04:23:50;;;;;;;3.73;3.43;;;6.30;99.90;;;;;;5018647;28;20527;-70
2024/03/12 04:26:15;;;;;;;3.43;3.17;;;6.30;99.90;;;;;;5020266;28;20434;-70
2024/03/12 04:28:42;;;;;;;4.03;3.03;;;6.30;99.90;;;;;;5020251;28;20666;-70
2024/03/12 04:31:08;;;;;;;3.20;2.90;;;6.30;99.90;;;;;;5016734;28;20256;-69
2024/03/12 04:33:34;;;;;;;4.20;3.90;;;6.40;99.90;;;;;;5029050;28;20499;-70
2024/03/12 04:36:00;;;;;;;3.60;3.27;;;6.40;99.90;;;;;;5014353;28;20178;-70
2024/03/12 04:38:26;;;;;;;3.83;3.43;;;6.40;99.90;;;;;;5020752;28;20769;-70
2024/03/12 04:40:51;;;;;;;4.07;3.57;;;6.40;99.90;;;;;;5017441;28;20175;-69
2024/03/12 04:43:18;;;;;;;4.23;3.10;;;6.50;99.90;;;;;;5018352;28;20272;-70
2024/03/12 04:45:44;;;;;;;4.27;3.07;;;6.50;99.90;;;;;;5011882;28;20605;-70
2024/03/12 04:48:11;;;;;;;3.23;3.03;;;6.50;99.90;;;;;;5010994;28;20426;-69
2024/03/12 04:50:37;;;;;;;4.73;3.03;;;6.60;99.90;;;;;;5021044;28;20736;-70
2024/03/12 04:53:03;;;;;;;7.00;3.73;;;6.70;99.90;;;;;;5018829;28;20513;-69
2024/03/12 04:55:29;;;;;;;4.10;2.87;;;6.70;99.90;;;;;;4996245;28;20438;-69
2024/03/12 04:57:55;;;;;;;3.00;2.80;;;6.70;99.90;;;;;;5008911;28;20433;-69
2024/03/12 05:00:21;;;;;;;2.93;2.73;;;6.70;99.90;;;;;;5020000;28;20637;-69
2024/03/12 05:02:49;;;;;;;2.73;2.47;;;6.80;99.90;;;;;;5022477;28;20290;-70
2024/03/12 05:05:18;;;;;;;4.00;3.70;;;6.80;99.90;;;;;;5018108;28;20993;-70
2024/03/12 05:07:44;;;;;;;3.03;2.83;;;6.80;99.90;;;;;;5027986;28;20800;-70
2024/03/12 05:10:11;;;;;;;2.90;2.60;;;6.80;99.90;;;;;;5027034;28;20429;-70
2024/03/12 05:12:36;;;;;;;3.83;3.20;;;6.80;99.90;;;;;;5024121;28;20433;-70
2024/03/12 05:15:03;;;;;;;2.60;2.40;;;6.80;99.90;;;;;;5031404;28;20448;-70
2024/03/12 05:17:29;;;;;;;5.00;4.10;;;6.90;99.90;;;;;;5012646;28;20495;-72
2024/03/12 05:19:55;;;;;;;4.20;2.87;;;6.90;99.90;;;;;;5017653;28;20442;-72
2024/03/12 05:22:22;;;;;;;3.00;2.80;;;6.90;99.90;;;;;;5021732;28;20195;-72
2024/03/12 05:24:47;;;;;;;3.13;2.83;;;7.00;99.90;;;;;;5016922;28;20548;-72
2024/03/12 05:27:21;;;;;;;4.90;4.40;;;6.90;99.90;;;;;;5025487;28;20567;-69
2024/03/12 05:29:52;;;;;;;4.27;3.87;;;7.00;99.90;;;;;;5021304;28;20552;-69
2024/03/12 05:32:18;;;;;;;4.30;3.90;;;7.00;99.90;;;;;;5022618;28;20436;-69
2024/03/12 05:34:47;;;;;;;3.13;2.87;;;7.10;99.90;;;;;;5020543;28;20833;-70
2024/03/12 05:37:28;;;;;;;4.93;2.87;;;7.10;99.90;;;;;;5005392;28;20436;-70
2024/03/12 05:48:10;;;;;;;3.53;3.23;;;7.20;99.90;;;;;;4993959;28;20496;-69
2024/03/12 05:50:42;;;;;;;4.00;3.70;;;7.10;99.90;;;;;;4996028;28;20520;-69
2024/03/12 05:53:08;;;;;;;4.10;3.20;;;7.10;99.90;;;;;;5008405;28;20429;-69
2024/03/12 05:55:34;;;;;;;3.60;3.30;;;7.10;99.90;;;;;;5014083;28;20425;-69
2024/03/12 05:58:00;;;;;;;5.90;4.10;;;7.20;99.90;;;;;;5013226;28;20422;-69
2024/03/12 06:00:25;;;;;;;3.67;3.20;;;7.20;99.90;;;;;;4995902;28;20430;-70
2024/03/12 06:02:51;;;;;;;3.43;3.23;;;7.20;99.90;;;;;;4994287;28;20564;-69
2024/03/12 06:05:16;;;;;;;3.77;3.47;;;7.30;99.90;;;;;;5004375;28;20241;-70
2024/03/12 06:07:48;;;;;;;4.80;3.57;;;7.30;99.90;;;;;;5013092;28;20658;-69
2024/03/12 06:10:14;;;;;;;4.00;3.60;;;7.40;99.90;;;;;;5013556;28;20225;-69
2024/03/12 06:12:39;;;;;;;5.03;4.20;;;7.40;99.90;;;;;;5013684;28;20515;-70
2024/03/12 06:15:05;;;;;;;4.10;3.80;;;7.50;99.90;;;;;;5013398;28;20457;-70
2024/03/12 06:17:32;;;;;;;4.47;3.63;;;7.50;99.90;;;;;;5012993;28;20193;-70
2024/03/12 06:19:58;;;;;;;4.00;3.70;;;7.50;99.90;;;;;;5013564;28;20414;-69
2024/03/12 06:22:24;;;;;;;4.40;3.83;;;7.50;99.90;;;;;;5013414;28;20516;-69
2024/03/12 06:24:49;;;;;;;3.93;3.27;;;7.50;99.90;;;;;;5010272;22;20495;-70
2024/03/12 06:27:16;;;;;;;4.20;3.70;;;7.60;99.90;;;;;;4973684;28;20634;-69
2024/03/12 06:29:42;;;;;;;4.57;4.17;;;7.60;99.90;;;;;;4982320;28;20183;-70
2024/03/12 06:32:07;;;;;;;7.93;5.83;;;7.50;99.90;;;;;;4993197;28;20438;-69
2024/03/12 06:34:33;;;;;;;3.80;3.50;;;7.50;99.90;;;;;;4993632;28;20199;-71
2024/03/12 06:36:59;;;;;;;4.77;3.97;;;7.50;99.90;;;;;;4992639;28;20203;-70
2024/03/12 06:39:31;;;;;;;4.90;3.53;;;7.50;99.90;;;;;;4985213;28;20204;-69
2024/03/12 06:42:02;;;;;;;3.40;3.20;;;7.60;99.90;;;;;;4974184;28;20180;-69
2024/03/12 06:44:28;;;;;;;4.27;3.70;;;7.50;99.90;;;;;;4977862;28;20636;-70
2024/03/12 06:46:54;;;;;;;4.00;3.70;;;7.50;99.90;;;;;;4991585;28;20480;-69
2024/03/12 06:49:20;;;;;;;3.33;3.03;;;7.50;99.90;;;;;;4993155;28;20832;-69
2024/03/12 06:51:47;;;;;;;5.40;3.47;;;7.50;99.90;;;;;;4993392;28;20561;-70
2024/03/12 06:54:13;;;;;;;3.67;3.37;;;7.50;99.90;;;;;;4993377;28;20282;-70
2024/03/12 06:56:48;;;;;;;8.03;3.57;;;7.60;99.90;;;;;;4992616;28;20481;-69
2024/03/12 06:59:15;;;;;;;4.80;3.47;;;7.70;99.90;;;;;;4992469;28;20422;-69
2024/03/12 07:01:41;;;;;;;4.53;3.47;;;7.70;99.90;;;;;;4993302;28;20429;-69
2024/03/12 07:04:10;;;;;;;6.13;4.60;;;7.70;99.90;;;;;;4993003;28;20517;-69
2024/03/12 07:06:42;;;;;;;3.77;2.97;;;7.80;99.90;;;;;;4992478;28;20433;-70
2024/03/12 07:09:22;;;;;;;4.47;3.70;;;7.90;99.90;;;;;;4993166;28;20419;-69
2024/03/12 07:11:48;;;;;;;3.53;3.17;;;7.90;99.90;;;;;;4969274;28;20428;-71
2024/03/12 07:14:23;;;;;;;3.63;3.20;;;7.90;99.90;;;;;;4954481;28;20476;-69
2024/03/12 07:16:52;;;;;;;7.13;3.40;;;7.90;99.90;;;;;;4991703;28;20522;-69
2024/03/12 07:19:17;;;;;;;4.47;3.40;;;7.90;99.90;;;;;;4992334;28;20430;-72
2024/03/12 07:21:43;;;;;;;7.23;3.00;;;8.00;99.90;;;;;;4972293;28;20920;-72
2024/03/12 07:24:12;;;;;;;4.07;3.33;;;8.00;99.90;;;;;;4973188;28;20286;-69
2024/03/12 07:26:37;;;;;;;3.00;2.80;;;8.10;99.90;;;;;;4972862;28;20744;-69
2024/03/12 07:29:06;;;;;;;3.20;3.00;;;8.10;99.90;;;;;;4973484;28;20428;-69
2024/03/12 07:31:33;;;;;;;4.13;3.37;;;8.10;99.90;;;;;;4988523;28;20434;-71
2024/03/12 07:34:00;;;;;;;4.07;3.00;;;8.10;99.90;;;;;;4981958;28;20450;-70
2024/03/12 07:36:26;;;;;;;3.30;2.77;;;8.00;99.90;;;;;;4972512;28;20463;-71
2024/03/12 07:38:52;;;;;;;3.70;3.40;;;8.10;99.90;;;;;;4973389;28;20447;-70
2024/03/12 07:41:18;;;;;;;3.50;3.20;;;8.10;99.90;;;;;;4971794;28;20476;-71
2024/03/12 07:43:44;;;;;;;3.43;2.13;;;8.10;99.90;;;;;;4973178;28;20474;-71
2024/03/12 07:46:11;;;;;;;2.80;2.07;;;8.10;99.90;;;;;;4980928;28;20180;-70
2024/03/12 07:48:37;;;;;;;3.77;2.80;;;8.10;99.90;;;;;;4985737;28;20485;-71
2024/03/12 07:51:05;;;;;;;3.37;2.90;;;8.00;99.90;;;;;;4980476;28;20423;-72
2024/03/12 07:53:30;;;;;;;2.90;1.73;;;8.10;99.90;;;;;;4973135;28;20538;-71
2024/03/12 07:56:00;;;;;;;2.63;2.43;;;8.10;99.90;;;;;;4975348;28;20510;-71
2024/03/12 07:58:28;;;;;;;3.30;3.00;;;8.10;99.90;;;;;;4972501;28;20176;-71
2024/03/12 08:00:55;;;;;;;2.80;2.60;;;8.10;99.90;;;;;;4979404;28;20434;-72
2024/03/12 08:03:20;;;;;;;3.40;2.90;;;8.10;99.90;;;;;;4990987;28;20455;-71
2024/03/12 08:05:46;;;;;;;2.13;1.60;;;8.10;99.90;;;;;;4980235;28;20423;-71
2024/03/12 08:08:12;;;;;;;2.00;1.70;;;8.20;99.90;;;;;;4972246;28;20168;-71
2024/03/12 08:10:38;;;;;;;3.83;2.10;;;8.10;99.90;;;;;;4973000;28;20263;-69
2024/03/12 08:13:05;;;;;;;2.37;1.93;;;8.20;99.90;;;;;;4972945;28;20172;-69
2024/03/12 08:15:31;;;;;;;2.13;1.80;;;8.20;99.90;;;;;;4972507;28;21003;-68
2024/03/12 08:17:57;;;;;;;2.50;2.10;;;8.30;99.90;;;;;;4972070;28;20485;-68
2024/03/12 08:20:22;;;;;;;2.53;2.33;;;8.20;99.90;;;;;;4972908;28;20506;-69
2024/03/12 08:22:48;;;;;;;2.17;1.97;;;8.20;99.90;;;;;;4972751;28;20314;-71
2024/03/12 08:25:16;;;;;;;5.80;2.30;;;8.20;99.90;;;;;;4972716;28;20451;-70
2024/03/12 08:27:42;;;;;;;2.43;2.10;;;8.20;99.90;;;;;;4970770;28;20184;-71
2024/03/12 08:30:08;;;;;;;2.70;2.50;;;8.00;99.90;;;;;;4976754;28;20435;-71
2024/03/12 08:32:36;;;;;;;2.50;2.30;;;8.00;99.90;;;;;;4980207;28;20446;-71
2024/03/12 08:35:03;;;;;;;2.23;2.03;;;8.00;99.90;;;;;;4976378;28;20439;-71
2024/03/12 08:37:29;;;;;;;2.80;2.60;;;8.10;99.90;;;;;;4975752;28;20423;-72
2024/03/12 08:39:55;;;;;;;2.37;2.20;;;8.30;99.90;;;;;;4983717;28;20503;-71
2024/03/12 08:42:21;;;;;;;2.27;2.17;;;8.50;99.90;;;;;;4983817;28;21062;-71
2024/03/12 08:44:47;;;;;;;2.33;2.13;;;8.40;99.90;;;;;;4976322;28;20447;-70
2024/03/12 08:47:14;;;;;;;2.57;2.37;;;8.50;99.90;;;;;;4994091;28;20427;-70
2024/03/12 08:49:40;;;;;;;2.50;2.30;;;8.50;99.90;;;;;;4995499;28;20430;-70
2024/03/12 08:52:06;;;;;;;4.67;2.43;;;8.60;99.90;;;;;;4990796;28;20477;-71
2024/03/12 08:54:33;;;;;;;2.10;1.93;;;8.60;99.90;;;;;;4976018;28;20427;-71
2024/03/12 08:56:59;;;;;;;1.93;1.70;;;8.50;99.90;;;;;;4975303;28;20423;-71
2024/03/12 08:59:25;;;;;;;2.80;2.60;;;8.50;99.90;;;;;;4975963;28;20477;-70
2024/03/12 09:01:50;;;;;;;2.07;1.77;;;8.60;99.90;;;;;;4989468;28;20509;-70
2024/03/12 09:04:16;;;;;;;3.73;1.80;;;8.60;99.90;;;;;;4977067;28;20725;-70
2024/03/12 09:06:42;;;;;;;2.27;2.07;;;8.60;99.90;;;;;;4975164;28;20164;-70
2024/03/12 09:09:07;;;;;;;3.17;2.87;;;8.60;99.90;;;;;;4976049;28;20527;-71
2024/03/12 09:11:33;;;;;;;2.20;2.00;;;8.60;99.90;;;;;;4974627;28;20575;-71
2024/03/12 09:13:59;;;;;;;3.50;2.17;;;8.50;99.90;;;;;;4975781;28;20200;-71
2024/03/12 09:16:25;;;;;;;2.87;2.20;;;8.60;99.90;;;;;;4983593;28;20182;-70
2024/03/12 09:18:50;;;;;;;3.13;2.10;;;8.60;99.90;;;;;;4995107;28;20425;-72
2024/03/12 09:21:18;;;;;;;3.67;2.90;;;8.70;99.90;;;;;;4994810;28;20637;-70
2024/03/12 09:23:43;;;;;;;2.40;2.03;;;8.70;99.90;;;;;;4988047;28;20616;-70
2024/03/12 09:26:09;;;;;;;3.00;2.10;;;8.80;99.90;;;;;;4975559;28;20426;-70
2024/03/12 09:28:36;;;;;;;2.60;2.40;;;8.80;99.90;;;;;;4974794;28;20231;-70
2024/03/12 09:31:04;;;;;;;3.30;2.83;;;8.90;99.90;;;;;;4975552;28;20256;-71
2024/03/12 09:33:30;;;;;;;3.60;2.43;;;8.90;99.90;;;;;;4975433;28;20424;-70
2024/03/12 09:35:55;;;;;;;2.90;2.70;;;8.90;99.90;;;;;;4975279;28;20952;-70
2024/03/12 09:38:21;;;;;;;4.63;3.23;;;9.00;99.90;;;;;;4973529;28;20179;-70
2024/03/12 09:40:50;;;;;;;3.17;2.87;;;9.10;99.90;;;;;;4974895;28;20172;-70
2024/03/12 09:43:18;;;;;;;3.30;2.90;;;9.10;99.90;;;;;;4975177;28;20454;-71
2024/03/12 09:45:45;;;;;;;2.03;1.70;;;9.10;99.90;;;;;;4975039;28;20450;-70
2024/03/12 09:48:16;;;;;;;4.27;2.93;;;9.00;99.90;;;;;;4976946;28;20435;-71
2024/03/12 09:50:42;;;;;;;2.47;2.27;;;9.00;99.90;;;;;;4975154;28;20420;-71
2024/03/12 09:53:11;;;;;;;2.43;2.10;;;8.90;99.90;;;;;;4974816;28;20450;-70
2024/03/12 09:55:38;;;;;;;3.47;2.93;;;9.00;99.90;;;;;;4973733;28;20211;-70
2024/03/12 09:58:06;;;;;;;3.43;2.60;;;9.10;99.90;;;;;;4974311;28;20994;-70
2024/03/12 10:00:33;;;;;;;4.50;4.10;;;9.20;99.90;;;;;;4974855;28;20427;-70
2024/03/12 10:02:59;;;;;;;3.13;2.70;;;9.30;99.90;;;;;;4990108;28;20549;-71
2024/03/12 10:05:25;;;;;;;3.33;2.80;;;9.20;99.90;;;;;;4983166;28;20444;-71
2024/03/12 10:08:15;;;;;;;6.43;3.33;;;9.10;99.90;;;;;;4972999;28;20434;-71
2024/03/12 10:10:42;;;;;;;10.77;2.93;;;9.10;99.90;;;;;;4973585;28;20177;-71
2024/03/12 10:13:14;;;;;;;3.90;3.17;;;9.10;99.90;;;;;;4974256;28;20434;-70
2024/03/12 10:15:56;;;;;;;4.13;3.33;;;9.30;99.90;;;;;;4985679;28;20451;-70
2024/03/12 10:18:22;;;;;;;3.37;2.73;;;9.50;99.90;;;;;;4975574;28;20895;-70
2024/03/12 10:20:50;;;;;;;3.50;2.50;;;9.60;99.90;;;;;;4973688;28;20871;-70
2024/03/12 10:23:18;;;;;;;4.30;3.30;;;9.50;99.90;;;;;;4974325;28;20570;-70
2024/03/12 10:25:48;;;;;;;4.67;3.10;;;9.40;99.90;;;;;;4974437;28;20440;-70
2024/03/12 10:28:15;;;;;;;2.33;2.13;;;9.40;99.90;;;;;;4986099;28;20433;-70
2024/03/12 10:30:42;;;;;;;2.90;2.60;;;9.40;99.90;;;;;;4991178;28;20514;-70
2024/03/12 10:33:20;;;;;;;3.07;2.33;;;9.30;99.90;;;;;;4974358;28;20423;-70
2024/03/12 10:35:46;;;;;;;2.37;2.13;;;9.40;99.90;;;;;;4974269;28;20510;-70
2024/03/12 10:38:25;;;;;;;4.13;3.27;;;9.50;99.90;;;;;;4971937;28;20905;-70
2024/03/12 10:40:52;;;;;;;2.80;2.37;;;9.30;99.90;;;;;;4991092;28;20892;-70
2024/03/12 10:43:21;;;;;;;3.47;2.60;;;9.30;99.90;;;;;;4993534;28;20454;-70
2024/03/12 10:45:49;;;;;;;2.33;2.13;;;9.30;99.90;;;;;;4992350;28;20830;-70
2024/03/12 10:48:15;;;;;;;3.57;2.77;;;9.40;99.90;;;;;;4973345;28;20416;-70
2024/03/12 10:50:42;;;;;;;2.30;2.10;;;9.60;99.90;;;;;;4974071;28;20843;-70
2024/03/12 10:53:11;;;;;;;2.27;2.07;;;9.60;99.90;;;;;;4973482;28;20234;-70
2024/03/12 10:55:38;;;;;;;2.73;2.13;;;9.70;99.90;;;;;;4974018;28;20443;-70
2024/03/12 10:58:06;;;;;;;3.70;2.60;;;9.80;99.90;;;;;;4973232;28;20992;-70
2024/03/12 11:00:33;;;;;;;2.53;1.70;;;9.90;99.90;;;;;;4973752;28;20428;-70
2024/03/12 11:02:59;;;;;;;1.80;1.63;;;9.80;99.90;;;;;;4990168;28;20548;-70
2024/03/12 11:05:29;;;;;;;2.73;2.43;;;9.70;99.90;;;;;;4993244;28;20486;-70
2024/03/12 11:07:57;;;;;;;4.93;2.60;;;9.70;99.90;;;;;;4992556;28;20454;-70
2024/03/12 11:10:27;;;;;;;2.67;2.47;;;9.70;99.90;;;;;;4992851;28;20418;-70
2024/03/12 11:12:54;;;;;;;3.00;2.63;;;9.70;99.90;;;;;;4992285;28;20435;-70
2024/03/12 11:15:20;;;;;;;3.60;2.63;;;9.70;99.90;;;;;;4992918;28;20442;-70
2024/03/12 11:17:48;;;;;;;3.73;2.50;;;9.80;99.90;;;;;;4979268;28;20952;-70
2024/03/12 11:20:18;;;;;;;3.60;2.90;;;9.90;99.90;;;;;;4973556;28;20456;-70
2024/03/12 11:22:45;;;;;;;3.73;2.77;;;9.90;99.90;;;;;;4973470;28;20451;-71
2024/03/12 11:25:15;;;;;;;2.40;2.20;;;10.00;99.90;;;;;;4989715;28;20486;-68
2024/03/12 11:27:46;;;;;;;1.87;1.77;;;10.00;99.90;;;;;;4992058;28;20436;-70
2024/03/12 11:30:16;;;;;;;2.50;2.20;;;10.20;99.90;;;;;;4992966;28;20469;-70
2024/03/12 11:32:44;;;;;;;3.13;1.93;;;10.20;99.90;;;;;;4992108;28;20431;-70
2024/03/12 11:35:21;;;;;;;1.93;1.50;;;10.10;99.90;;;;;;4992726;28;20529;-71
2024/03/12 11:37:56;;;;;;;3.23;1.37;;;10.30;99.90;;;;;;4990785;28;20461;-71
2024/03/12 11:40:30;;;;;;;1.90;1.53;;;10.40;99.90;;;;;;4992854;28;20426;-70
2024/03/12 11:42:55;;;;;;;1.60;1.40;;;10.30;99.90;;;;;;4980700;28;20455;-70
2024/03/12 11:45:39;;;;;;;1.70;1.60;;;10.40;99.90;;;;;;4973308;28;20819;-70
2024/03/12 11:48:09;;;;;;;3.00;1.60;;;10.40;99.90;;;;;;4983756;28;20167;-70
2024/03/12 11:50:36;;;;;;;2.00;1.63;;;10.00;99.90;;;;;;4992605;28;20455;-70
2024/03/12 11:53:29;;;;;;;4.63;3.17;;;9.80;99.90;;;;;;4992660;28;20916;-70
2024/03/12 11:56:10;;;;;;;7.03;2.83;;;9.70;99.90;;;;;;4952243;28;20432;-70
2024/03/12 11:58:46;;;;;;;3.90;3.07;;;9.70;99.90;;;;;;4953223;29;20427;-70
2024/03/12 12:01:23;;;;;;;4.07;2.87;;;9.60;99.90;;;;;;4954001;29;20933;-70
2024/03/12 12:04:03;;;;;;;3.77;2.67;;;9.60;99.90;;;;;;4985398;28;20938;-69
2024/03/12 12:06:31;;;;;;;4.43;2.70;;;9.60;99.90;;;;;;4995820;28;20950;-69
2024/03/12 12:09:05;;;;;;;3.07;2.57;;;9.60;99.90;;;;;;4996472;28;20938;-69
2024/03/12 12:11:34;;;;;;;2.10;1.90;;;9.60;99.90;;;;;;4995139;28;20429;-69
2024/03/12 12:14:00;;;;;;;2.33;2.10;;;9.40;99.90;;;;;;4994742;28;20812;-69
2024/03/12 12:16:27;;;;;;;2.53;2.17;;;9.30;99.90;;;;;;4995587;28;20434;-70
2024/03/12 12:19:01;;;;;;;3.90;2.77;;;9.30;99.90;;;;;;4993887;28;20178;-69
2024/03/12 12:21:30;;;;;;;3.50;3.17;;;9.20;99.90;;;;;;4996560;28;20783;-69
2024/03/12 12:26:25;;;;;;;3.57;2.43;;;9.50;99.90;;;;;;5012493;28;20489;-71
2024/03/12 12:28:53;;;;;;;1.83;1.60;;;9.60;99.90;;;;;;5015687;28;20839;-71
2024/03/12 12:31:21;;;;;;;2.47;1.80;;;9.70;99.90;;;;;;5015746;28;20760;-70
2024/03/12 12:33:49;;;;;;;2.87;2.03;;;9.80;99.90;;;;;;5015052;28;20436;-70
2024/03/12 12:36:19;;;;;;;2.80;2.60;;;9.80;99.90;;;;;;5015500;28;20954;-71
2024/03/12 12:38:45;;;;;;;3.23;2.93;;;9.90;99.90;;;;;;5015109;28;20440;-70
2024/03/12 12:41:11;;;;;;;5.77;5.03;;;10.00;99.90;;;;;;5015487;28;20448;-70
2024/03/12 12:43:39;;;;;;;8.20;6.03;;;10.00;99.90;;;;;;5005779;28;20458;-70
2024/03/12 12:46:05;;;;;;;7.60;5.80;;;10.00;99.90;;;;;;4995859;28;20278;-69
2024/03/12 12:48:33;;;;;;;7.63;5.37;;;9.90;99.90;;;;;;4996666;28;20458;-69
2024/03/12 12:50:59;;;;;;;8.40;5.83;;;9.90;99.90;;;;;;4995857;28;20233;-69
2024/03/12 12:53:26;;;;;;;6.33;5.20;;;9.90;99.90;;;;;;4995797;28;20418;-68
2024/03/12 12:56:09;;;;;;;8.90;7.30;;;9.80;99.90;;;;;;5006939;28;20445;-69
2024/03/12 12:58:36;;;;;;;7.97;5.93;;;9.90;99.90;;;;;;5014515;28;20439;-69
2024/03/12 13:01:02;;;;;;;9.73;5.83;;;9.80;99.90;;;;;;5015103;28;20428;-69
2024/03/12 13:03:39;;;;;;;12.70;8.33;;;9.80;99.90;;;;;;5010166;28;20609;-69
2024/03/12 13:06:22;;;;;;;9.57;8.13;;;9.60;99.90;;;;;;4995359;28;20453;-69
2024/03/12 13:08:51;;;;;;;12.07;8.30;;;9.60;99.90;;;;;;4995105;28;20457;-69
2024/03/12 13:11:18;;;;;;;11.83;7.97;;;9.60;99.90;;;;;;4995327;28;20422;-69